createdAt,value
2022-08-17T00:00:34.561Z,18.80
2022-08-17T00:03:09.988Z,18.90
2022-08-17T00:05:42.319Z,19.00
2022-08-17T00:08:10.751Z,19.10
2022-08-17T00:10:39.076Z,19.10
2022-08-17T00:13:08.704Z,19.10
2022-08-17T00:15:36.632Z,19.20
2022-08-17T00:18:04.807Z,19.20
2022-08-17T00:20:54.765Z,19.20
2022-08-17T00:23:22.831Z,19.00
2022-08-17T00:25:51.875Z,18.80
2022-08-17T00:28:20.264Z,18.70
2022-08-17T00:30:53.533Z,18.60
2022-08-17T00:33:24.049Z,18.60
2022-08-17T00:35:54.016Z,18.60
2022-08-17T00:38:22.892Z,18.60
2022-08-17T00:40:55.801Z,18.60
2022-08-17T00:43:31.133Z,18.60
2022-08-17T00:46:01.099Z,18.70
2022-08-17T00:48:30.836Z,18.60
2022-08-17T00:51:06.603Z,18.60
2022-08-17T00:53:38.564Z,18.50
2022-08-17T00:56:11.737Z,18.50
2022-08-17T00:58:40.143Z,18.40
2022-08-17T01:01:10.568Z,18.40
2022-08-17T01:03:39.728Z,18.40
2022-08-17T01:06:09.919Z,18.40
2022-08-17T01:08:40.600Z,18.30
2022-08-17T01:11:09.162Z,18.30
2022-08-17T01:13:41.393Z,18.20
2022-08-17T01:16:16.981Z,18.20
2022-08-17T01:18:46.495Z,18.10
2022-08-17T01:21:21.286Z,18.10
2022-08-17T01:23:50.543Z,18.00
2022-08-17T01:26:20.173Z,18.00
2022-08-17T01:28:55.382Z,17.90
2022-08-17T01:31:25.965Z,17.90
2022-08-17T01:33:54.477Z,17.80
2022-08-17T01:36:22.437Z,17.80
2022-08-17T01:39:02.763Z,17.80
2022-08-17T01:41:30.709Z,17.80
2022-08-17T01:44:02.396Z,17.80
2022-08-17T01:46:33.370Z,17.70
2022-08-17T01:49:02.121Z,17.70
2022-08-17T01:51:33.247Z,17.60
2022-08-17T01:54:06.164Z,17.60
2022-08-17T01:56:35.581Z,17.60
2022-08-17T01:59:03.905Z,17.60
2022-08-17T02:01:33.690Z,17.60
2022-08-17T02:04:03.016Z,17.60
2022-08-17T02:06:45.303Z,17.60
2022-08-17T02:09:23.984Z,17.50
2022-08-17T02:11:54.186Z,17.50
2022-08-17T02:14:23.335Z,17.40
2022-08-17T02:16:51.767Z,17.40
2022-08-17T02:19:20.373Z,17.30
2022-08-17T02:21:50.902Z,17.30
2022-08-17T02:25:00.251Z,17.30
2022-08-17T02:27:13.123Z,17.30
2022-08-17T02:29:41.007Z,17.30
2022-08-17T02:32:25.438Z,17.30
2022-08-17T02:34:56.422Z,17.30
2022-08-17T02:37:24.447Z,17.30
2022-08-17T02:39:53.843Z,17.30
2022-08-17T02:42:27.675Z,17.20
2022-08-17T02:44:55.636Z,17.20
2022-08-17T02:47:23.510Z,17.20
2022-08-17T02:49:55.666Z,17.20
2022-08-17T02:52:43.003Z,17.30
2022-08-17T02:55:16.881Z,17.30
2022-08-17T02:57:45.300Z,17.20
2022-08-17T03:00:21.132Z,17.10
2022-08-17T03:02:49.872Z,17.10
2022-08-17T03:05:21.652Z,17.10
2022-08-17T03:07:49.585Z,17.10
2022-08-17T03:10:19.452Z,17.10
2022-08-17T03:12:47.586Z,17.10
2022-08-17T03:15:18.916Z,17.10
2022-08-17T03:17:47.090Z,17.10
2022-08-17T03:20:17.181Z,17.10
2022-08-17T03:22:53.318Z,17.10
2022-08-17T03:25:25.631Z,17.10
2022-08-17T03:27:54.708Z,17.10
2022-08-17T03:30:23.538Z,17.10
2022-08-17T03:32:54.617Z,17.20
2022-08-17T03:35:27.152Z,17.10
2022-08-17T03:38:00.117Z,17.20
2022-08-17T03:40:55.183Z,17.20
2022-08-17T03:43:21.556Z,17.30
2022-08-17T03:46:10.891Z,17.40
2022-08-17T03:49:12.917Z,17.50
2022-08-17T03:51:58.477Z,17.60
2022-08-17T03:54:44.072Z,17.70
2022-08-17T03:57:13.459Z,17.70
2022-08-17T03:59:41.547Z,17.80
2022-08-17T04:02:11.747Z,17.80
2022-08-17T04:04:40.123Z,17.80
2022-08-17T04:07:08.770Z,17.90
2022-08-17T04:09:37.477Z,17.90
2022-08-17T04:12:06.358Z,18.00
2022-08-17T04:14:52.065Z,18.30
2022-08-17T04:17:22.421Z,18.40
2022-08-17T04:19:50.299Z,18.50
2022-08-17T04:22:32.137Z,18.50
2022-08-17T04:25:04.163Z,18.50
2022-08-17T04:27:32.069Z,18.60
2022-08-17T04:30:01.422Z,18.60
2022-08-17T04:33:00.698Z,18.50
2022-08-17T04:35:20.584Z,18.50
2022-08-17T04:37:48.472Z,18.50
2022-08-17T04:40:34.722Z,18.60
2022-08-17T04:43:04.840Z,18.50
2022-08-17T04:45:34.645Z,18.50
2022-08-17T04:48:02.549Z,18.50
2022-08-17T04:50:30.580Z,18.60
2022-08-17T04:52:58.656Z,18.50
2022-08-17T04:55:27.015Z,18.50
2022-08-17T04:57:55.188Z,18.60
2022-08-17T05:00:25.705Z,18.70
2022-08-17T05:02:56.560Z,18.70
2022-08-17T05:05:27.566Z,18.90
2022-08-17T05:07:56.724Z,18.90
2022-08-17T05:10:26.001Z,18.80
2022-08-17T05:12:59.538Z,18.80
2022-08-17T05:15:28.697Z,18.90
2022-08-17T05:18:02.919Z,18.90
2022-08-17T05:20:30.884Z,18.90
2022-08-17T05:23:00.242Z,18.90
2022-08-17T05:25:30.519Z,18.90
2022-08-17T05:28:02.428Z,19.00
2022-08-17T05:30:30.481Z,19.10
2022-08-17T05:33:00.375Z,19.10
2022-08-17T05:35:32.178Z,19.10
2022-08-17T05:38:00.770Z,19.20
2022-08-17T05:40:32.850Z,19.40
2022-08-17T05:43:10.970Z,19.50
2022-08-17T05:45:54.867Z,19.70
2022-08-17T05:48:35.591Z,19.80
2022-08-17T05:51:48.441Z,19.90
2022-08-17T05:54:34.753Z,19.90
2022-08-17T05:57:19.772Z,19.90
2022-08-17T05:59:53.742Z,19.90
2022-08-17T06:02:30.736Z,20.00
2022-08-17T06:05:11.401Z,20.00
2022-08-17T06:07:50.031Z,20.00
2022-08-17T06:10:27.860Z,20.10
2022-08-17T06:13:06.336Z,20.10
2022-08-17T06:15:41.667Z,20.20
2022-08-17T06:18:15.929Z,20.20
2022-08-17T06:20:51.527Z,20.30
2022-08-17T06:23:27.511Z,20.30
2022-08-17T06:26:03.630Z,20.30
2022-08-17T06:28:37.084Z,20.30
2022-08-17T06:31:13.000Z,20.40
2022-08-17T06:33:41.724Z,20.40
2022-08-17T06:36:26.537Z,20.40
2022-08-17T06:39:08.615Z,20.40
2022-08-17T06:41:46.003Z,20.30
2022-08-17T06:44:49.900Z,20.40
2022-08-17T06:47:11.080Z,20.40
2022-08-17T06:49:45.812Z,20.40
2022-08-17T06:52:37.606Z,20.30
2022-08-17T06:55:17.860Z,20.30
2022-08-17T06:57:50.150Z,20.30
2022-08-17T07:00:22.244Z,20.20
2022-08-17T07:02:55.551Z,20.30
2022-08-17T07:05:26.394Z,20.20
2022-08-17T07:08:04.980Z,20.20
2022-08-17T07:10:44.256Z,20.20
2022-08-17T07:13:31.993Z,20.10
2022-08-17T07:16:14.656Z,20.00
2022-08-17T07:18:43.684Z,20.10
2022-08-17T07:21:26.191Z,20.10
2022-08-17T07:24:07.839Z,20.00
2022-08-17T07:26:38.837Z,20.00
2022-08-17T07:29:07.044Z,20.00
2022-08-17T07:31:35.019Z,20.00
2022-08-17T07:34:07.955Z,20.10
2022-08-17T07:36:36.140Z,20.20
2022-08-17T07:39:05.402Z,20.30
2022-08-17T07:41:53.283Z,20.30
2022-08-17T07:44:27.840Z,20.30
2022-08-17T07:47:14.449Z,20.30
2022-08-17T07:49:46.438Z,20.30
2022-08-17T07:52:51.071Z,20.20
2022-08-17T07:55:29.348Z,20.20
2022-08-17T07:58:03.559Z,20.10
2022-08-17T08:00:33.737Z,20.10
2022-08-17T08:03:19.100Z,20.00
2022-08-17T08:05:56.094Z,20.00
2022-08-17T08:08:28.134Z,20.00
2022-08-17T08:11:02.875Z,19.90
2022-08-17T08:13:35.383Z,19.90
2022-08-17T08:16:25.937Z,19.80
2022-08-17T08:18:57.814Z,19.80
2022-08-17T08:21:37.458Z,19.90
2022-08-17T08:24:31.273Z,19.90
2022-08-17T08:27:13.743Z,19.90
2022-08-17T08:29:53.294Z,19.90
2022-08-17T08:32:35.094Z,20.00
2022-08-17T08:35:08.478Z,20.20
2022-08-17T08:37:48.053Z,20.30
2022-08-17T08:40:36.393Z,20.30
2022-08-17T08:43:15.176Z,20.30
2022-08-17T08:45:56.582Z,20.30
2022-08-17T08:48:52.863Z,20.40
2022-08-17T08:51:33.555Z,20.50
2022-08-17T08:54:11.791Z,20.60
2022-08-17T08:57:04.995Z,20.80
2022-08-17T08:59:44.541Z,20.90
2022-08-17T09:02:34.619Z,21.10
2022-08-17T09:05:15.173Z,21.20
2022-08-17T09:07:57.350Z,21.40
2022-08-17T09:10:37.286Z,21.50
2022-08-17T09:13:16.379Z,21.60
2022-08-17T09:15:48.344Z,21.80
2022-08-17T09:18:59.820Z,22.00
2022-08-17T09:21:21.431Z,22.10
2022-08-17T09:24:03.241Z,22.20
2022-08-17T09:26:41.071Z,22.20
2022-08-17T09:29:24.776Z,22.30
2022-08-17T09:31:57.846Z,22.40
2022-08-17T09:34:33.493Z,22.50
2022-08-17T09:37:16.764Z,22.50
2022-08-17T09:39:56.665Z,22.60
2022-08-17T09:42:31.716Z,22.60
2022-08-17T09:45:11.071Z,22.70
2022-08-17T09:47:47.899Z,22.80
2022-08-17T09:51:03.487Z,22.90
2022-08-17T09:53:13.577Z,23.00
2022-08-17T09:56:07.574Z,23.00
2022-08-17T09:58:50.606Z,23.00
2022-08-17T10:01:36.213Z,23.00
2022-08-17T10:04:34.240Z,22.90
2022-08-17T10:07:14.028Z,22.90
2022-08-17T10:09:56.178Z,22.70
2022-08-17T10:12:35.189Z,22.70
2022-08-17T10:15:17.310Z,22.60
2022-08-17T10:18:08.751Z,22.50
2022-08-17T10:20:46.482Z,22.50
2022-08-17T10:23:41.857Z,22.50
2022-08-17T10:26:20.525Z,22.50
2022-08-17T10:28:56.473Z,22.60
2022-08-17T10:31:35.201Z,22.60
2022-08-17T10:34:43.287Z,22.70
2022-08-17T10:37:37.966Z,22.80
2022-08-17T10:40:26.533Z,22.90
2022-08-17T10:43:00.669Z,23.00
2022-08-17T10:45:35.719Z,23.10
2022-08-17T10:48:39.858Z,23.10
2022-08-17T10:51:11.029Z,23.20
2022-08-17T10:53:52.713Z,23.30
2022-08-17T10:56:41.263Z,23.50
2022-08-17T10:59:12.815Z,23.80
2022-08-17T11:02:23.160Z,23.90
2022-08-17T11:05:07.184Z,24.10
2022-08-17T11:07:52.640Z,24.30
2022-08-17T11:10:42.166Z,24.40
2022-08-17T11:13:26.620Z,24.50
2022-08-17T11:16:08.853Z,24.50
2022-08-17T11:19:10.130Z,24.50
2022-08-17T11:22:06.219Z,24.60
2022-08-17T11:24:38.478Z,24.70
2022-08-17T11:27:19.746Z,24.70
2022-08-17T11:30:01.503Z,24.90
2022-08-17T11:32:48.008Z,25.00
2022-08-17T11:35:42.269Z,25.30
2022-08-17T11:38:25.349Z,25.30
2022-08-17T11:41:15.033Z,25.30
2022-08-17T11:44:15.335Z,25.30
2022-08-17T11:47:17.656Z,25.30
2022-08-17T11:50:33.929Z,25.10
2022-08-17T11:53:03.949Z,25.00
2022-08-17T11:56:08.136Z,24.90
2022-08-17T11:58:58.528Z,24.90
2022-08-17T12:02:02.349Z,24.80
2022-08-17T12:04:34.005Z,24.70
2022-08-17T12:07:09.543Z,24.70
2022-08-17T12:09:42.526Z,24.70
2022-08-17T12:12:15.979Z,24.70
2022-08-17T12:17:46.829Z,24.60
2022-08-17T12:20:23.958Z,24.50
2022-08-17T12:23:06.896Z,24.60
2022-08-17T12:25:40.695Z,24.60
2022-08-17T12:28:23.040Z,24.70
2022-08-17T12:30:52.349Z,24.60
2022-08-17T12:33:28.415Z,24.60
2022-08-17T12:36:07.499Z,24.50
2022-08-17T12:38:44.289Z,24.50
2022-08-17T12:41:29.474Z,24.50
2022-08-17T12:44:01.901Z,24.50
2022-08-17T12:46:36.464Z,24.50
2022-08-17T12:49:40.688Z,24.50
2022-08-17T12:52:18.600Z,24.60
2022-08-17T12:54:59.370Z,24.70
2022-08-17T12:57:36.779Z,24.80
2022-08-17T13:00:15.805Z,24.90
2022-08-17T13:02:49.603Z,25.10
2022-08-17T13:05:25.688Z,25.30
2022-08-17T13:07:57.627Z,25.60
2022-08-17T13:10:32.530Z,25.90
2022-08-17T13:13:08.076Z,26.10
2022-08-17T13:15:46.330Z,26.10
2022-08-17T13:18:42.812Z,26.30
2022-08-17T13:21:26.835Z,26.50
2022-08-17T13:23:59.653Z,26.50
2022-08-17T13:26:33.003Z,26.60
2022-08-17T13:29:05.312Z,26.70
2022-08-17T13:31:51.811Z,26.80
2022-08-17T13:34:45.724Z,26.90
2022-08-17T13:37:34.051Z,27.00
2022-08-17T13:40:29.086Z,27.10
2022-08-17T13:42:59.544Z,27.40
2022-08-17T13:45:44.780Z,27.60
2022-08-17T13:48:23.746Z,27.70
2022-08-17T13:51:08.037Z,27.70
2022-08-17T13:53:55.688Z,27.80
2022-08-17T13:56:37.183Z,27.80
2022-08-17T13:59:14.494Z,27.90
2022-08-17T14:01:54.074Z,28.00
2022-08-17T14:04:25.457Z,27.80
2022-08-17T14:07:00.555Z,27.80
2022-08-17T14:09:39.879Z,27.80
2022-08-17T14:12:12.554Z,27.80
2022-08-17T14:14:42.946Z,27.90
2022-08-17T14:17:12.462Z,27.90
2022-08-17T14:19:40.667Z,28.00
2022-08-17T14:22:29.733Z,27.90
2022-08-17T14:25:02.863Z,27.90
2022-08-17T14:27:43.255Z,28.00
2022-08-17T14:30:26.941Z,27.90
2022-08-17T14:32:59.300Z,28.00
2022-08-17T14:35:29.393Z,28.00
2022-08-17T14:37:58.984Z,27.90
2022-08-17T14:40:30.827Z,27.80
2022-08-17T14:43:01.320Z,27.70
2022-08-17T14:45:32.171Z,27.70
2022-08-17T14:48:04.892Z,27.80
2022-08-17T14:50:36.210Z,27.70
2022-08-17T14:53:07.609Z,27.70
2022-08-17T14:55:40.457Z,27.80
2022-08-17T14:58:09.745Z,27.80
2022-08-17T15:00:44.348Z,27.80
2022-08-17T15:03:12.607Z,27.80
2022-08-17T15:05:44.196Z,27.90
2022-08-17T15:08:16.136Z,27.90
2022-08-17T15:10:54.206Z,28.00
2022-08-17T15:13:29.549Z,27.90
2022-08-17T15:15:59.176Z,27.80
2022-08-17T15:18:27.522Z,27.80
2022-08-17T15:20:56.004Z,27.80
2022-08-17T15:23:27.777Z,27.90
2022-08-17T15:26:01.897Z,27.90
2022-08-17T15:28:33.746Z,28.00
2022-08-17T15:31:03.734Z,28.00
2022-08-17T15:33:34.333Z,28.10
2022-08-17T15:36:07.860Z,28.10
2022-08-17T15:38:39.614Z,28.10
2022-08-17T15:41:15.264Z,28.10
2022-08-17T15:43:46.162Z,28.10
2022-08-17T15:46:17.231Z,28.10
2022-08-17T15:48:49.304Z,28.20
2022-08-17T15:51:24.207Z,28.20
2022-08-17T15:53:57.564Z,28.10
2022-08-17T15:56:46.113Z,28.10
2022-08-17T15:59:16.172Z,28.10
2022-08-17T16:03:04.643Z,28.10
2022-08-17T16:04:34.325Z,28.00
2022-08-17T16:07:03.812Z,28.00
2022-08-17T16:09:31.736Z,28.00
2022-08-17T16:12:13.898Z,28.00
2022-08-17T16:14:48.105Z,28.00
2022-08-17T16:17:38.700Z,28.00
2022-08-17T16:20:07.581Z,27.90
2022-08-17T16:22:38.177Z,27.80
2022-08-17T16:25:10.403Z,27.80
2022-08-17T16:27:42.102Z,27.80
2022-08-17T16:30:17.346Z,27.80
2022-08-17T16:32:51.312Z,27.70
2022-08-17T16:35:26.268Z,27.70
2022-08-17T16:37:58.334Z,27.70
2022-08-17T16:40:29.487Z,27.60
2022-08-17T16:43:00.783Z,27.60
2022-08-17T16:45:39.918Z,27.60
2022-08-17T16:48:07.907Z,27.50
2022-08-17T16:50:37.528Z,27.50
2022-08-17T16:53:10.747Z,27.40
2022-08-17T16:55:42.236Z,27.40
2022-08-17T16:58:14.123Z,27.30
2022-08-17T17:00:45.628Z,27.30
2022-08-17T17:03:19.385Z,27.30
2022-08-17T17:06:06.764Z,27.30
2022-08-17T17:08:42.218Z,27.30
2022-08-17T17:11:15.633Z,27.30
2022-08-17T17:13:53.198Z,27.30
2022-08-17T17:16:28.764Z,27.30
2022-08-17T17:19:11.188Z,27.30
2022-08-17T17:21:56.341Z,27.20
2022-08-17T17:24:30.991Z,27.10
2022-08-17T17:27:16.278Z,27.10
2022-08-17T17:30:03.132Z,27.10
2022-08-17T17:32:41.035Z,27.00
2022-08-17T17:35:16.445Z,27.00
2022-08-17T17:37:47.311Z,26.90
2022-08-17T17:40:24.371Z,26.90
2022-08-17T17:43:09.262Z,26.80
2022-08-17T17:45:54.842Z,26.80
2022-08-17T17:48:25.031Z,26.80
2022-08-17T17:51:03.446Z,26.70
2022-08-17T17:53:44.495Z,26.70
2022-08-17T17:56:43.286Z,26.60
2022-08-17T17:59:21.522Z,26.50
2022-08-17T18:02:01.979Z,26.40
2022-08-17T18:04:36.822Z,26.30
2022-08-17T18:07:22.742Z,26.20
2022-08-17T18:10:19.839Z,26.00
2022-08-17T18:13:13.112Z,25.90
2022-08-17T18:15:51.029Z,25.70
2022-08-17T18:18:43.065Z,25.60
2022-08-17T18:21:18.584Z,25.50
2022-08-17T18:23:58.795Z,25.50
2022-08-17T18:26:45.020Z,25.40
2022-08-17T18:29:46.833Z,25.40
2022-08-17T18:32:26.080Z,25.20
2022-08-17T18:35:01.259Z,25.10
2022-08-17T18:37:44.904Z,25.00
2022-08-17T18:40:38.264Z,24.90
2022-08-17T18:43:27.335Z,24.80
2022-08-17T18:46:29.014Z,24.70
2022-08-17T18:49:04.431Z,24.50
2022-08-17T18:51:42.210Z,24.40
2022-08-17T18:54:20.189Z,24.40
2022-08-17T18:56:54.555Z,24.30
2022-08-17T18:59:55.299Z,24.20
2022-08-17T19:02:43.419Z,24.10
2022-08-17T19:05:27.104Z,24.00
2022-08-17T19:08:19.198Z,23.80
2022-08-17T19:10:49.026Z,23.80
2022-08-17T19:13:24.024Z,23.70
2022-08-17T19:16:11.695Z,23.70
2022-08-17T19:18:50.015Z,23.60
2022-08-17T19:21:27.275Z,23.60
2022-08-17T19:24:05.017Z,23.50
2022-08-17T19:26:53.954Z,23.50
2022-08-17T19:29:31.826Z,23.50
2022-08-17T19:32:02.493Z,23.60
2022-08-17T19:34:35.561Z,23.60
2022-08-17T19:37:10.824Z,23.60
2022-08-17T19:39:50.744Z,23.60
2022-08-17T19:42:28.370Z,23.40
2022-08-17T19:45:04.134Z,23.30
2022-08-17T19:48:04.699Z,23.10
2022-08-17T19:50:41.692Z,23.00
2022-08-17T19:53:21.184Z,23.00
2022-08-17T19:56:00.751Z,22.90
2022-08-17T19:58:42.939Z,22.80
2022-08-17T20:01:20.487Z,22.70
2022-08-17T20:03:59.730Z,22.60
2022-08-17T20:06:36.294Z,22.50
2022-08-17T20:09:14.969Z,22.40
2022-08-17T20:11:53.486Z,22.40
2022-08-17T20:14:39.325Z,22.40
2022-08-17T20:17:25.417Z,22.40
2022-08-17T20:20:06.205Z,22.50
2022-08-17T20:22:50.421Z,22.60
2022-08-17T20:25:30.905Z,22.60
2022-08-17T20:28:07.762Z,22.60
2022-08-17T20:30:42.797Z,22.60
2022-08-17T20:33:25.549Z,22.50
2022-08-17T20:36:17.799Z,22.50
2022-08-17T20:38:50.305Z,22.40
2022-08-17T20:41:22.441Z,22.30
2022-08-17T20:44:07.065Z,22.30
2022-08-17T20:46:57.630Z,22.30
2022-08-17T20:49:35.068Z,22.30
2022-08-17T20:52:09.042Z,22.40
2022-08-17T20:54:50.263Z,22.40
2022-08-17T20:57:47.277Z,22.40
2022-08-17T21:00:45.396Z,22.50
2022-08-17T21:03:51.154Z,22.50
2022-08-17T21:06:27.047Z,22.50
2022-08-17T21:09:00.100Z,22.50
2022-08-17T21:12:03.962Z,22.50
2022-08-17T21:14:57.987Z,22.30
2022-08-17T21:17:59.140Z,22.20
2022-08-17T21:20:35.440Z,22.00
2022-08-17T21:23:31.544Z,21.90
2022-08-17T21:26:28.091Z,21.80
2022-08-17T21:29:29.775Z,21.70
2022-08-17T21:32:24.483Z,21.50
2022-08-17T21:35:54.292Z,21.50
2022-08-17T21:38:42.195Z,21.50
2022-08-17T21:41:22.068Z,21.40
2022-08-17T21:43:56.900Z,21.40
2022-08-17T21:46:33.324Z,21.40
2022-08-17T21:49:13.811Z,21.50
2022-08-17T21:51:50.338Z,21.50
2022-08-17T21:54:31.289Z,21.50
2022-08-17T21:57:04.164Z,21.50
2022-08-17T21:59:35.764Z,21.40
2022-08-17T22:02:07.838Z,21.30
2022-08-17T22:04:37.955Z,21.20
2022-08-17T22:07:10.846Z,21.10
2022-08-17T22:09:46.116Z,21.00
2022-08-17T22:12:18.631Z,20.90
2022-08-17T22:15:00.336Z,20.90
2022-08-17T22:17:36.224Z,20.90
2022-08-17T22:20:11.635Z,20.90
2022-08-17T22:23:22.992Z,20.80
2022-08-17T22:26:03.973Z,20.80
2022-08-17T22:28:47.455Z,20.60
2022-08-17T22:31:17.044Z,20.60
2022-08-17T22:33:50.163Z,20.60
2022-08-17T22:36:29.216Z,20.60
2022-08-17T22:39:02.081Z,20.70
2022-08-17T22:41:53.866Z,20.70
2022-08-17T22:44:34.028Z,20.70
2022-08-17T22:47:11.472Z,20.90
2022-08-17T22:49:53.842Z,20.90
2022-08-17T22:52:34.974Z,21.00
2022-08-17T22:55:31.366Z,21.00
2022-08-17T22:58:17.531Z,21.00
2022-08-17T23:00:48.112Z,21.00
2022-08-17T23:03:20.266Z,21.10
2022-08-17T23:06:04.017Z,21.20
2022-08-17T23:08:35.685Z,21.20
2022-08-17T23:11:09.197Z,21.40
2022-08-17T23:13:41.064Z,21.60
2022-08-17T23:16:11.644Z,21.70
2022-08-17T23:18:39.581Z,21.70
2022-08-17T23:21:09.050Z,21.70
2022-08-17T23:23:44.835Z,21.60
2022-08-17T23:26:17.116Z,21.60
2022-08-17T23:28:47.629Z,21.60
2022-08-17T23:31:19.223Z,21.50
2022-08-17T23:33:54.840Z,21.50
2022-08-17T23:36:26.330Z,21.50
2022-08-17T23:38:54.489Z,21.60
2022-08-17T23:41:29.035Z,21.50
2022-08-17T23:43:57.021Z,21.50
2022-08-17T23:46:28.203Z,21.60
2022-08-17T23:48:58.488Z,21.60
2022-08-17T23:51:30.761Z,21.80
2022-08-17T23:54:08.345Z,21.90
2022-08-17T23:56:45.626Z,22.10
2022-08-17T23:59:15.343Z,22.10
